sensor_id;sensor_type;location;lat;lon;timestamp;P1;durP1;ratioP1;P2;durP2;ratioP2
82417;SDS011;72059;53.734;10.260;2023-09-08T00:00:08;4.67;;;4.37;;
82417;SDS011;72059;53.734;10.260;2023-09-08T00:02:36;4.45;;;4.15;;
82417;SDS011;72059;53.734;10.260;2023-09-08T00:05:03;4.60;;;4.20;;
82417;SDS011;72059;53.734;10.260;2023-09-08T00:07:31;4.75;;;4.35;;
82417;SDS011;72059;53.734;10.260;2023-09-08T00:09:58;4.53;;;4.22;;
82417;SDS011;72059;53.734;10.260;2023-09-08T00:12:26;4.53;;;4.22;;
82417;SDS011;72059;53.734;10.260;2023-09-08T00:14:53;5.15;;;4.65;;
82417;SDS011;72059;53.734;10.260;2023-09-08T00:17:21;4.28;;;3.87;;
82417;SDS011;72059;53.734;10.260;2023-09-08T00:19:48;4.00;;;3.70;;
82417;SDS011;72059;53.734;10.260;2023-09-08T00:22:16;4.58;;;4.28;;
82417;SDS011;72059;53.734;10.260;2023-09-08T00:24:43;5.03;;;4.62;;
82417;SDS011;72059;53.734;10.260;2023-09-08T00:27:11;4.62;;;4.22;;
82417;SDS011;72059;53.734;10.260;2023-09-08T00:29:38;4.12;;;3.72;;
82417;SDS011;72059;53.734;10.260;2023-09-08T00:32:05;4.00;;;3.70;;
82417;SDS011;72059;53.734;10.260;2023-09-08T00:34:33;4.42;;;4.03;;
82417;SDS011;72059;53.734;10.260;2023-09-08T00:37:00;4.87;;;4.53;;
82417;SDS011;72059;53.734;10.260;2023-09-08T00:39:29;4.95;;;4.55;;
82417;SDS011;72059;53.734;10.260;2023-09-08T00:41:57;3.95;;;3.65;;
82417;SDS011;72059;53.734;10.260;2023-09-08T00:44:24;4.03;;;3.72;;
82417;SDS011;72059;53.734;10.260;2023-09-08T00:46:51;4.28;;;3.87;;
82417;SDS011;72059;53.734;10.260;2023-09-08T00:49:20;3.83;;;3.52;;
82417;SDS011;72059;53.734;10.260;2023-09-08T00:51:47;4.40;;;4.10;;
82417;SDS011;72059;53.734;10.260;2023-09-08T00:54:15;3.98;;;3.67;;
82417;SDS011;72059;53.734;10.260;2023-09-08T00:56:42;3.90;;;3.60;;
82417;SDS011;72059;53.734;10.260;2023-09-08T00:59:11;4.00;;;3.70;;
82417;SDS011;72059;53.734;10.260;2023-09-08T01:01:39;4.30;;;4.00;;
82417;SDS011;72059;53.734;10.260;2023-09-08T01:04:06;4.20;;;3.90;;
82417;SDS011;72059;53.734;10.260;2023-09-08T01:06:34;4.58;;;4.17;;
82417;SDS011;72059;53.734;10.260;2023-09-08T01:09:02;4.30;;;4.00;;
82417;SDS011;72059;53.734;10.260;2023-09-08T01:11:30;4.30;;;4.00;;
82417;SDS011;72059;53.734;10.260;2023-09-08T01:13:58;4.30;;;4.00;;
82417;SDS011;72059;53.734;10.260;2023-09-08T01:16:26;4.33;;;3.92;;
82417;SDS011;72059;53.734;10.260;2023-09-08T01:18:53;3.85;;;3.55;;
82417;SDS011;72059;53.734;10.260;2023-09-08T01:26:40;3.27;;;3.08;;
82417;SDS011;72059;53.734;10.260;2023-09-08T01:29:08;3.55;;;3.25;;
82417;SDS011;72059;53.734;10.260;2023-09-08T01:31:37;2.92;;;2.72;;
82417;SDS011;72059;53.734;10.260;2023-09-08T01:34:04;4.22;;;3.92;;
82417;SDS011;72059;53.734;10.260;2023-09-08T01:36:36;4.78;;;4.40;;
82417;SDS011;72059;53.734;10.260;2023-09-08T01:39:03;4.47;;;4.08;;
82417;SDS011;72059;53.734;10.260;2023-09-08T01:41:31;4.58;;;4.17;;
82417;SDS011;72059;53.734;10.260;2023-09-08T01:43:59;4.20;;;3.90;;
82417;SDS011;72059;53.734;10.260;2023-09-08T01:46:28;3.90;;;3.60;;
82417;SDS011;72059;53.734;10.260;2023-09-08T01:48:56;4.55;;;4.22;;
82417;SDS011;72059;53.734;10.260;2023-09-08T01:51:23;4.20;;;3.90;;
82417;SDS011;72059;53.734;10.260;2023-09-08T01:53:51;3.75;;;3.45;;
82417;SDS011;72059;53.734;10.260;2023-09-08T01:56:18;3.87;;;3.58;;
82417;SDS011;72059;53.734;10.260;2023-09-08T01:58:46;4.20;;;3.90;;
82417;SDS011;72059;53.734;10.260;2023-09-08T02:01:13;4.15;;;3.75;;
82417;SDS011;72059;53.734;10.260;2023-09-08T02:03:42;3.37;;;3.17;;
82417;SDS011;72059;53.734;10.260;2023-09-08T02:06:15;4.35;;;3.95;;
82417;SDS011;72059;53.734;10.260;2023-09-08T02:08:39;4.25;;;3.95;;
82417;SDS011;72059;53.734;10.260;2023-09-08T02:11:06;4.28;;;3.92;;
82417;SDS011;72059;53.734;10.260;2023-09-08T02:13:34;4.15;;;3.85;;
82417;SDS011;72059;53.734;10.260;2023-09-08T02:16:01;4.17;;;3.87;;
82417;SDS011;72059;53.734;10.260;2023-09-08T02:18:28;3.95;;;3.65;;
82417;SDS011;72059;53.734;10.260;2023-09-08T02:20:56;3.98;;;3.65;;
82417;SDS011;72059;53.734;10.260;2023-09-08T02:23:23;4.22;;;3.92;;
82417;SDS011;72059;53.734;10.260;2023-09-08T02:25:51;4.37;;;3.98;;
82417;SDS011;72059;53.734;10.260;2023-09-08T02:28:18;4.30;;;3.90;;
82417;SDS011;72059;53.734;10.260;2023-09-08T02:30:45;4.12;;;3.83;;
82417;SDS011;72059;53.734;10.260;2023-09-08T02:33:13;4.10;;;3.80;;
82417;SDS011;72059;53.734;10.260;2023-09-08T02:35:40;3.75;;;3.50;;
82417;SDS011;72059;53.734;10.260;2023-09-08T02:38:08;4.75;;;4.35;;
82417;SDS011;72059;53.734;10.260;2023-09-08T02:40:35;4.20;;;3.90;;
82417;SDS011;72059;53.734;10.260;2023-09-08T02:43:03;4.75;;;4.40;;
82417;SDS011;72059;53.734;10.260;2023-09-08T02:45:31;4.40;;;4.10;;
82417;SDS011;72059;53.734;10.260;2023-09-08T02:47:58;4.40;;;4.10;;
82417;SDS011;72059;53.734;10.260;2023-09-08T02:50:25;4.28;;;3.98;;
82417;SDS011;72059;53.734;10.260;2023-09-08T02:52:55;4.97;;;4.65;;
82417;SDS011;72059;53.734;10.260;2023-09-08T02:55:23;3.92;;;3.62;;
82417;SDS011;72059;53.734;10.260;2023-09-08T02:57:50;4.75;;;4.35;;
82417;SDS011;72059;53.734;10.260;2023-09-08T03:00:18;4.65;;;4.28;;
82417;SDS011;72059;53.734;10.260;2023-09-08T03:02:45;3.37;;;3.17;;
82417;SDS011;72059;53.734;10.260;2023-09-08T03:05:12;4.12;;;3.83;;
82417;SDS011;72059;53.734;10.260;2023-09-08T03:07:40;4.15;;;3.85;;
82417;SDS011;72059;53.734;10.260;2023-09-08T03:10:08;4.22;;;3.92;;
82417;SDS011;72059;53.734;10.260;2023-09-08T03:12:36;4.85;;;3.87;;
82417;SDS011;72059;53.734;10.260;2023-09-08T03:15:03;4.42;;;4.03;;
82417;SDS011;72059;53.734;10.260;2023-09-08T03:17:31;3.80;;;3.50;;
82417;SDS011;72059;53.734;10.260;2023-09-08T03:19:58;4.05;;;3.75;;
82417;SDS011;72059;53.734;10.260;2023-09-08T03:22:26;4.28;;;3.87;;
82417;SDS011;72059;53.734;10.260;2023-09-08T03:24:53;4.78;;;4.10;;
82417;SDS011;72059;53.734;10.260;2023-09-08T03:27:20;4.75;;;4.35;;
82417;SDS011;72059;53.734;10.260;2023-09-08T03:29:48;4.00;;;3.70;;
82417;SDS011;72059;53.734;10.260;2023-09-08T03:32:15;4.42;;;4.03;;
82417;SDS011;72059;53.734;10.260;2023-09-08T03:34:43;4.55;;;4.25;;
82417;SDS011;72059;53.734;10.260;2023-09-08T03:37:10;5.00;;;4.50;;
82417;SDS011;72059;53.734;10.260;2023-09-08T03:39:37;4.08;;;3.75;;
82417;SDS011;72059;53.734;10.260;2023-09-08T03:42:05;5.03;;;4.62;;
82417;SDS011;72059;53.734;10.260;2023-09-08T03:44:32;5.17;;;4.78;;
82417;SDS011;72059;53.734;10.260;2023-09-08T03:47:00;4.75;;;4.35;;
82417;SDS011;72059;53.734;10.260;2023-09-08T03:49:28;4.85;;;4.45;;
82417;SDS011;72059;53.734;10.260;2023-09-08T03:51:55;5.30;;;4.90;;
82417;SDS011;72059;53.734;10.260;2023-09-08T03:54:23;5.47;;;4.97;;
82417;SDS011;72059;53.734;10.260;2023-09-08T03:56:51;5.37;;;4.97;;
82417;SDS011;72059;53.734;10.260;2023-09-08T03:59:18;5.80;;;4.67;;
82417;SDS011;72059;53.734;10.260;2023-09-08T04:01:46;5.03;;;4.62;;
82417;SDS011;72059;53.734;10.260;2023-09-08T04:04:13;4.40;;;4.00;;
82417;SDS011;72059;53.734;10.260;2023-09-08T04:06:41;5.40;;;4.95;;
82417;SDS011;72059;53.734;10.260;2023-09-08T04:09:08;4.35;;;4.05;;
82417;SDS011;72059;53.734;10.260;2023-09-08T04:11:35;4.20;;;3.90;;
82417;SDS011;72059;53.734;10.260;2023-09-08T04:14:03;5.53;;;5.12;;
82417;SDS011;72059;53.734;10.260;2023-09-08T04:16:30;4.90;;;4.50;;
82417;SDS011;72059;53.734;10.260;2023-09-08T04:18:58;4.70;;;4.40;;
82417;SDS011;72059;53.734;10.260;2023-09-08T04:21:25;4.85;;;4.45;;
82417;SDS011;72059;53.734;10.260;2023-09-08T04:23:52;4.80;;;4.40;;
82417;SDS011;72059;53.734;10.260;2023-09-08T04:26:20;3.83;;;3.52;;
82417;SDS011;72059;53.734;10.260;2023-09-08T04:28:47;4.35;;;4.05;;
82417;SDS011;72059;53.734;10.260;2023-09-08T04:31:15;4.67;;;4.28;;
82417;SDS011;72059;53.734;10.260;2023-09-08T04:33:43;4.20;;;3.90;;
82417;SDS011;72059;53.734;10.260;2023-09-08T04:36:11;5.10;;;4.70;;
82417;SDS011;72059;53.734;10.260;2023-09-08T04:38:38;4.67;;;4.28;;
82417;SDS011;72059;53.734;10.260;2023-09-08T04:41:07;5.08;;;4.60;;
82417;SDS011;72059;53.734;10.260;2023-09-08T04:43:34;4.53;;;4.20;;
82417;SDS011;72059;53.734;10.260;2023-09-08T04:46:02;5.35;;;4.85;;
82417;SDS011;72059;53.734;10.260;2023-09-08T04:48:29;4.97;;;4.55;;
82417;SDS011;72059;53.734;10.260;2023-09-08T04:50:57;4.87;;;4.50;;
82417;SDS011;72059;53.734;10.260;2023-09-08T04:53:24;5.70;;;5.20;;
82417;SDS011;72059;53.734;10.260;2023-09-08T04:55:51;5.60;;;5.10;;
82417;SDS011;72059;53.734;10.260;2023-09-08T04:58:19;6.28;;;5.55;;
82417;SDS011;72059;53.734;10.260;2023-09-08T05:00:47;6.83;;;6.28;;
82417;SDS011;72059;53.734;10.260;2023-09-08T05:03:14;7.37;;;6.67;;
82417;SDS011;72059;53.734;10.260;2023-09-08T05:05:41;6.62;;;6.03;;
82417;SDS011;72059;53.734;10.260;2023-09-08T05:08:09;7.50;;;6.90;;
82417;SDS011;72059;53.734;10.260;2023-09-08T05:10:36;7.78;;;6.97;;
82417;SDS011;72059;53.734;10.260;2023-09-08T05:13:04;7.17;;;6.58;;
82417;SDS011;72059;53.734;10.260;2023-09-08T05:15:31;7.62;;;7.00;;
82417;SDS011;72059;53.734;10.260;2023-09-08T05:17:58;7.97;;;7.28;;
82417;SDS011;72059;53.734;10.260;2023-09-08T05:20:26;8.95;;;7.28;;
82417;SDS011;72059;53.734;10.260;2023-09-08T05:22:53;8.65;;;7.95;;
82417;SDS011;72059;53.734;10.260;2023-09-08T05:25:21;8.20;;;7.40;;
82417;SDS011;72059;53.734;10.260;2023-09-08T05:27:48;7.95;;;7.10;;
82417;SDS011;72059;53.734;10.260;2023-09-08T05:30:15;7.12;;;6.53;;
82417;SDS011;72059;53.734;10.260;2023-09-08T05:32:43;7.80;;;7.17;;
82417;SDS011;72059;53.734;10.260;2023-09-08T05:35:10;7.00;;;6.40;;
82417;SDS011;72059;53.734;10.260;2023-09-08T05:37:38;7.17;;;6.58;;
82417;SDS011;72059;53.734;10.260;2023-09-08T05:40:05;7.85;;;7.05;;
82417;SDS011;72059;53.734;10.260;2023-09-08T05:42:33;8.35;;;7.53;;
82417;SDS011;72059;53.734;10.260;2023-09-08T05:45:01;8.13;;;7.33;;
82417;SDS011;72059;53.734;10.260;2023-09-08T05:47:28;8.38;;;7.58;;
82417;SDS011;72059;53.734;10.260;2023-09-08T05:49:56;7.62;;;6.92;;
82417;SDS011;72059;53.734;10.260;2023-09-08T05:52:23;8.53;;;7.72;;
82417;SDS011;72059;53.734;10.260;2023-09-08T05:54:52;8.10;;;7.40;;
82417;SDS011;72059;53.734;10.260;2023-09-08T05:57:20;8.53;;;7.70;;
82417;SDS011;72059;53.734;10.260;2023-09-08T05:59:47;8.08;;;7.35;;
82417;SDS011;72059;53.734;10.260;2023-09-08T06:02:15;8.33;;;7.62;;
82417;SDS011;72059;53.734;10.260;2023-09-08T06:04:42;9.10;;;8.30;;
82417;SDS011;72059;53.734;10.260;2023-09-08T06:07:09;8.05;;;7.25;;
82417;SDS011;72059;53.734;10.260;2023-09-08T06:09:37;9.88;;;8.33;;
82417;SDS011;72059;53.734;10.260;2023-09-08T06:12:04;8.85;;;8.05;;
82417;SDS011;72059;53.734;10.260;2023-09-08T06:14:32;8.60;;;7.80;;
82417;SDS011;72059;53.734;10.260;2023-09-08T06:16:59;7.72;;;6.92;;
82417;SDS011;72059;53.734;10.260;2023-09-08T06:19:27;9.63;;;7.58;;
82417;SDS011;72059;53.734;10.260;2023-09-08T06:21:55;7.62;;;6.92;;
82417;SDS011;72059;53.734;10.260;2023-09-08T06:24:22;8.15;;;7.45;;
82417;SDS011;72059;53.734;10.260;2023-09-08T06:26:49;7.78;;;7.10;;
82417;SDS011;72059;53.734;10.260;2023-09-08T06:29:17;8.60;;;7.65;;
82417;SDS011;72059;53.734;10.260;2023-09-08T06:31:44;7.87;;;7.12;;
82417;SDS011;72059;53.734;10.260;2023-09-08T06:34:12;7.83;;;6.95;;
82417;SDS011;72059;53.734;10.260;2023-09-08T06:36:39;8.45;;;7.58;;
82417;SDS011;72059;53.734;10.260;2023-09-08T06:39:07;8.93;;;7.72;;
82417;SDS011;72059;53.734;10.260;2023-09-08T06:41:34;8.35;;;7.45;;
82417;SDS011;72059;53.734;10.260;2023-09-08T06:44:01;7.05;;;6.35;;
82417;SDS011;72059;53.734;10.260;2023-09-08T06:46:29;7.95;;;6.60;;
82417;SDS011;72059;53.734;10.260;2023-09-08T06:48:56;6.72;;;6.12;;
82417;SDS011;72059;53.734;10.260;2023-09-08T06:51:25;6.95;;;6.33;;
82417;SDS011;72059;53.734;10.260;2023-09-08T06:53:56;7.55;;;6.85;;
82417;SDS011;72059;53.734;10.260;2023-09-08T06:56:25;8.03;;;7.33;;
82417;SDS011;72059;53.734;10.260;2023-09-08T06:58:53;7.65;;;6.87;;
82417;SDS011;72059;53.734;10.260;2023-09-08T07:01:26;6.70;;;6.10;;
82417;SDS011;72059;53.734;10.260;2023-09-08T07:03:50;7.30;;;6.58;;
82417;SDS011;72059;53.734;10.260;2023-09-08T07:06:19;7.75;;;7.05;;
82417;SDS011;72059;53.734;10.260;2023-09-08T07:08:48;6.87;;;6.17;;
82417;SDS011;72059;53.734;10.260;2023-09-08T07:11:16;7.97;;;6.90;;
82417;SDS011;72059;53.734;10.260;2023-09-08T07:13:43;6.90;;;6.30;;
82417;SDS011;72059;53.734;10.260;2023-09-08T07:16:10;7.15;;;6.55;;
82417;SDS011;72059;53.734;10.260;2023-09-08T07:18:38;7.28;;;6.67;;
82417;SDS011;72059;53.734;10.260;2023-09-08T07:21:05;6.55;;;5.95;;
82417;SDS011;72059;53.734;10.260;2023-09-08T07:23:33;7.65;;;6.92;;
82417;SDS011;72059;53.734;10.260;2023-09-08T07:26:02;6.70;;;6.20;;
82417;SDS011;72059;53.734;10.260;2023-09-08T07:28:30;7.28;;;6.65;;
82417;SDS011;72059;53.734;10.260;2023-09-08T07:31:01;7.70;;;7.00;;
82417;SDS011;72059;53.734;10.260;2023-09-08T07:33:29;6.80;;;6.20;;
82417;SDS011;72059;53.734;10.260;2023-09-08T07:35:57;6.95;;;6.28;;
82417;SDS011;72059;53.734;10.260;2023-09-08T07:38:29;6.90;;;6.30;;
82417;SDS011;72059;53.734;10.260;2023-09-08T07:40:55;6.83;;;6.22;;
82417;SDS011;72059;53.734;10.260;2023-09-08T07:43:22;7.17;;;5.95;;
82417;SDS011;72059;53.734;10.260;2023-09-08T07:45:50;7.78;;;6.78;;
82417;SDS011;72059;53.734;10.260;2023-09-08T07:48:17;7.40;;;6.70;;
82417;SDS011;72059;53.734;10.260;2023-09-08T07:50:45;6.92;;;6.28;;
82417;SDS011;72059;53.734;10.260;2023-09-08T07:53:12;8.20;;;7.40;;
82417;SDS011;72059;53.734;10.260;2023-09-08T07:55:40;6.80;;;6.20;;
82417;SDS011;72059;53.734;10.260;2023-09-08T07:58:07;6.95;;;6.35;;
82417;SDS011;72059;53.734;10.260;2023-09-08T08:00:35;6.58;;;5.97;;
82417;SDS011;72059;53.734;10.260;2023-09-08T08:03:02;6.50;;;5.90;;
82417;SDS011;72059;53.734;10.260;2023-09-08T08:05:36;8.95;;;6.15;;
82417;SDS011;72059;53.734;10.260;2023-09-08T08:08:00;5.92;;;5.40;;
82417;SDS011;72059;53.734;10.260;2023-09-08T08:10:28;6.40;;;5.80;;
82417;SDS011;72059;53.734;10.260;2023-09-08T08:12:55;6.83;;;6.22;;
82417;SDS011;72059;53.734;10.260;2023-09-08T08:15:33;7.30;;;6.70;;
82417;SDS011;72059;53.734;10.260;2023-09-08T08:17:53;7.12;;;6.22;;
82417;SDS011;72059;53.734;10.260;2023-09-08T08:20:21;5.90;;;5.40;;
82417;SDS011;72059;53.734;10.260;2023-09-08T08:22:49;6.67;;;6.10;;
82417;SDS011;72059;53.734;10.260;2023-09-08T08:25:17;7.28;;;6.58;;
82417;SDS011;72059;53.734;10.260;2023-09-08T08:27:44;7.03;;;6.33;;
82417;SDS011;72059;53.734;10.260;2023-09-08T08:30:12;6.62;;;6.05;;
82417;SDS011;72059;53.734;10.260;2023-09-08T08:32:39;6.92;;;6.28;;
82417;SDS011;72059;53.734;10.260;2023-09-08T08:35:06;6.08;;;5.58;;
82417;SDS011;72059;53.734;10.260;2023-09-08T08:37:34;5.72;;;5.25;;
82417;SDS011;72059;53.734;10.260;2023-09-08T08:40:01;5.45;;;5.05;;
82417;SDS011;72059;53.734;10.260;2023-09-08T08:42:32;7.03;;;6.33;;
82417;SDS011;72059;53.734;10.260;2023-09-08T08:45:00;6.75;;;6.15;;
82417;SDS011;72059;53.734;10.260;2023-09-08T08:47:28;5.75;;;5.25;;
82417;SDS011;72059;53.734;10.260;2023-09-08T08:49:59;5.85;;;5.00;;
82417;SDS011;72059;53.734;10.260;2023-09-08T08:52:29;9.10;;;6.62;;
82417;SDS011;72059;53.734;10.260;2023-09-08T08:54:56;5.95;;;5.45;;
82417;SDS011;72059;53.734;10.260;2023-09-08T08:57:24;5.72;;;5.20;;
82417;SDS011;72059;53.734;10.260;2023-09-08T08:59:56;5.78;;;5.22;;
82417;SDS011;72059;53.734;10.260;2023-09-08T09:02:25;5.28;;;4.80;;
82417;SDS011;72059;53.734;10.260;2023-09-08T09:04:54;5.95;;;4.33;;
82417;SDS011;72059;53.734;10.260;2023-09-08T09:07:22;5.20;;;4.80;;
82417;SDS011;72059;53.734;10.260;2023-09-08T09:09:51;6.25;;;5.50;;
82417;SDS011;72059;53.734;10.260;2023-09-08T09:12:19;5.40;;;5.00;;
82417;SDS011;72059;53.734;10.260;2023-09-08T09:14:47;6.08;;;5.22;;
82417;SDS011;72059;53.734;10.260;2023-09-08T09:17:16;5.10;;;4.70;;
82417;SDS011;72059;53.734;10.260;2023-09-08T09:19:43;4.90;;;4.53;;
82417;SDS011;72059;53.734;10.260;2023-09-08T09:22:11;5.25;;;4.75;;
82417;SDS011;72059;53.734;10.260;2023-09-08T09:24:39;4.85;;;4.47;;
82417;SDS011;72059;53.734;10.260;2023-09-08T09:27:09;6.65;;;5.05;;
82417;SDS011;72059;53.734;10.260;2023-09-08T09:29:46;4.97;;;4.58;;
82417;SDS011;72059;53.734;10.260;2023-09-08T09:32:13;6.10;;;5.58;;
82417;SDS011;72059;53.734;10.260;2023-09-08T09:34:52;6.53;;;5.58;;
82417;SDS011;72059;53.734;10.260;2023-09-08T09:37:18;5.62;;;5.03;;
82417;SDS011;72059;53.734;10.260;2023-09-08T09:39:49;5.05;;;4.65;;
82417;SDS011;72059;53.734;10.260;2023-09-08T09:42:18;5.60;;;4.95;;
82417;SDS011;72059;53.734;10.260;2023-09-08T09:44:47;5.60;;;5.10;;
82417;SDS011;72059;53.734;10.260;2023-09-08T09:47:14;5.03;;;4.62;;
82417;SDS011;72059;53.734;10.260;2023-09-08T09:49:48;4.80;;;4.40;;
82417;SDS011;72059;53.734;10.260;2023-09-08T09:52:13;4.53;;;4.12;;
82417;SDS011;72059;53.734;10.260;2023-09-08T09:54:42;5.22;;;4.72;;
82417;SDS011;72059;53.734;10.260;2023-09-08T09:57:13;4.47;;;4.08;;
82417;SDS011;72059;53.734;10.260;2023-09-08T09:59:41;6.87;;;4.83;;
82417;SDS011;72059;53.734;10.260;2023-09-08T10:02:12;7.78;;;4.62;;
82417;SDS011;72059;53.734;10.260;2023-09-08T10:04:41;4.92;;;4.53;;
82417;SDS011;72059;53.734;10.260;2023-09-08T10:07:09;5.08;;;4.67;;
82417;SDS011;72059;53.734;10.260;2023-09-08T10:09:36;4.33;;;4.00;;
82417;SDS011;72059;53.734;10.260;2023-09-08T10:12:04;4.65;;;4.25;;
82417;SDS011;72059;53.734;10.260;2023-09-08T10:14:35;4.95;;;4.55;;
82417;SDS011;72059;53.734;10.260;2023-09-08T10:17:04;5.10;;;4.60;;
82417;SDS011;72059;53.734;10.260;2023-09-08T10:19:34;4.30;;;4.00;;
82417;SDS011;72059;53.734;10.260;2023-09-08T10:22:03;4.33;;;4.03;;
82417;SDS011;72059;53.734;10.260;2023-09-08T10:24:35;4.40;;;4.00;;
82417;SDS011;72059;53.734;10.260;2023-09-08T10:29:42;4.37;;;3.92;;
82417;SDS011;72059;53.734;10.260;2023-09-08T10:32:07;4.45;;;3.85;;
82417;SDS011;72059;53.734;10.260;2023-09-08T10:34:35;3.50;;;3.30;;
82417;SDS011;72059;53.734;10.260;2023-09-08T10:37:17;3.62;;;3.20;;
82417;SDS011;72059;53.734;10.260;2023-09-08T10:39:50;3.10;;;2.90;;
82417;SDS011;72059;53.734;10.260;2023-09-08T10:47:30;3.50;;;3.20;;
82417;SDS011;72059;53.734;10.260;2023-09-08T10:50:02;4.58;;;4.17;;
82417;SDS011;72059;53.734;10.260;2023-09-08T10:52:30;4.47;;;4.08;;
82417;SDS011;72059;53.734;10.260;2023-09-08T10:55:00;4.22;;;3.92;;
82417;SDS011;72059;53.734;10.260;2023-09-08T10:57:27;4.15;;;3.85;;
82417;SDS011;72059;53.734;10.260;2023-09-08T10:59:57;3.92;;;3.60;;
82417;SDS011;72059;53.734;10.260;2023-09-08T11:02:41;5.47;;;4.05;;
82417;SDS011;72059;53.734;10.260;2023-09-08T11:05:12;5.15;;;3.83;;
82417;SDS011;72059;53.734;10.260;2023-09-08T11:07:41;3.70;;;3.50;;
82417;SDS011;72059;53.734;10.260;2023-09-08T11:10:10;3.75;;;3.45;;
82417;SDS011;72059;53.734;10.260;2023-09-08T11:12:39;4.10;;;3.80;;
82417;SDS011;72059;53.734;10.260;2023-09-08T11:15:07;3.75;;;3.45;;
82417;SDS011;72059;53.734;10.260;2023-09-08T11:17:35;4.08;;;3.70;;
82417;SDS011;72059;53.734;10.260;2023-09-08T11:20:07;3.55;;;3.25;;
82417;SDS011;72059;53.734;10.260;2023-09-08T11:22:39;3.83;;;3.52;;
82417;SDS011;72059;53.734;10.260;2023-09-08T11:25:07;4.20;;;3.87;;
82417;SDS011;72059;53.734;10.260;2023-09-08T11:27:37;3.92;;;3.62;;
82417;SDS011;72059;53.734;10.260;2023-09-08T11:30:07;3.65;;;3.40;;
82417;SDS011;72059;53.734;10.260;2023-09-08T11:32:35;3.27;;;2.98;;
82417;SDS011;72059;53.734;10.260;2023-09-08T11:35:06;3.67;;;3.37;;
82417;SDS011;72059;53.734;10.260;2023-09-08T11:37:40;3.42;;;3.12;;
82417;SDS011;72059;53.734;10.260;2023-09-08T11:40:05;4.50;;;3.25;;
82417;SDS011;72059;53.734;10.260;2023-09-08T11:42:41;3.80;;;3.40;;
82417;SDS011;72059;53.734;10.260;2023-09-08T11:45:14;4.35;;;3.77;;
82417;SDS011;72059;53.734;10.260;2023-09-08T11:47:49;3.80;;;3.50;;
82417;SDS011;72059;53.734;10.260;2023-09-08T11:50:19;4.85;;;3.60;;
82417;SDS011;72059;53.734;10.260;2023-09-08T11:52:53;3.85;;;3.55;;
82417;SDS011;72059;53.734;10.260;2023-09-08T11:55:21;3.75;;;3.45;;
82417;SDS011;72059;53.734;10.260;2023-09-08T11:57:49;4.87;;;2.90;;
82417;SDS011;72059;53.734;10.260;2023-09-08T12:00:23;3.25;;;3.00;;
82417;SDS011;72059;53.734;10.260;2023-09-08T12:02:52;3.45;;;3.15;;
82417;SDS011;72059;53.734;10.260;2023-09-08T12:05:26;3.10;;;2.90;;
82417;SDS011;72059;53.734;10.260;2023-09-08T12:07:55;3.05;;;2.85;;
82417;SDS011;72059;53.734;10.260;2023-09-08T12:10:24;3.62;;;3.35;;
82417;SDS011;72059;53.734;10.260;2023-09-08T12:12:52;3.20;;;3.00;;
82417;SDS011;72059;53.734;10.260;2023-09-08T12:15:32;2.95;;;2.75;;
82417;SDS011;72059;53.734;10.260;2023-09-08T12:18:04;2.85;;;2.65;;
82417;SDS011;72059;53.734;10.260;2023-09-08T12:20:31;2.80;;;2.60;;
82417;SDS011;72059;53.734;10.260;2023-09-08T12:22:59;2.50;;;2.30;;
82417;SDS011;72059;53.734;10.260;2023-09-08T12:25:28;3.20;;;2.90;;
82417;SDS011;72059;53.734;10.260;2023-09-08T12:28:00;3.15;;;2.95;;
82417;SDS011;72059;53.734;10.260;2023-09-08T12:30:28;3.12;;;2.83;;
82417;SDS011;72059;53.734;10.260;2023-09-08T12:32:57;2.77;;;2.57;;
82417;SDS011;72059;53.734;10.260;2023-09-08T12:35:27;3.20;;;3.00;;
82417;SDS011;72059;53.734;10.260;2023-09-08T12:38:01;2.75;;;2.60;;
82417;SDS011;72059;53.734;10.260;2023-09-08T12:40:36;3.02;;;2.83;;
82417;SDS011;72059;53.734;10.260;2023-09-08T12:43:04;3.20;;;3.00;;
82417;SDS011;72059;53.734;10.260;2023-09-08T12:45:32;2.65;;;2.55;;
82417;SDS011;72059;53.734;10.260;2023-09-08T12:48:00;3.10;;;2.90;;
82417;SDS011;72059;53.734;10.260;2023-09-08T12:50:29;2.75;;;2.50;;
82417;SDS011;72059;53.734;10.260;2023-09-08T12:52:56;2.65;;;2.45;;
82417;SDS011;72059;53.734;10.260;2023-09-08T12:55:24;2.65;;;2.47;;
82417;SDS011;72059;53.734;10.260;2023-09-08T12:57:51;2.50;;;2.30;;
82417;SDS011;72059;53.734;10.260;2023-09-08T13:00:22;2.50;;;2.30;;
82417;SDS011;72059;53.734;10.260;2023-09-08T13:02:50;2.58;;;2.47;;
82417;SDS011;72059;53.734;10.260;2023-09-08T13:05:18;3.22;;;2.92;;
82417;SDS011;72059;53.734;10.260;2023-09-08T13:07:45;5.08;;;3.10;;
82417;SDS011;72059;53.734;10.260;2023-09-08T13:10:13;5.00;;;2.70;;
82417;SDS011;72059;53.734;10.260;2023-09-08T13:12:41;2.75;;;2.55;;
82417;SDS011;72059;53.734;10.260;2023-09-08T13:15:08;2.95;;;2.75;;
82417;SDS011;72059;53.734;10.260;2023-09-08T13:17:36;2.40;;;2.27;;
82417;SDS011;72059;53.734;10.260;2023-09-08T13:20:03;2.80;;;2.60;;
82417;SDS011;72059;53.734;10.260;2023-09-08T13:22:32;2.85;;;2.65;;
82417;SDS011;72059;53.734;10.260;2023-09-08T13:24:59;3.30;;;3.00;;
82417;SDS011;72059;53.734;10.260;2023-09-08T13:27:27;2.90;;;2.70;;
82417;SDS011;72059;53.734;10.260;2023-09-08T13:29:54;4.53;;;3.35;;
82417;SDS011;72059;53.734;10.260;2023-09-08T13:32:36;5.10;;;3.12;;
82417;SDS011;72059;53.734;10.260;2023-09-08T13:35:04;5.17;;;3.62;;
82417;SDS011;72059;53.734;10.260;2023-09-08T13:37:32;3.65;;;3.30;;
82417;SDS011;72059;53.734;10.260;2023-09-08T13:40:06;3.80;;;3.50;;
82417;SDS011;72059;53.734;10.260;2023-09-08T13:42:33;3.35;;;3.15;;
82417;SDS011;72059;53.734;10.260;2023-09-08T13:45:01;3.72;;;3.17;;
82417;SDS011;72059;53.734;10.260;2023-09-08T13:47:28;3.47;;;3.15;;
82417;SDS011;72059;53.734;10.260;2023-09-08T13:49:56;3.10;;;2.90;;
82417;SDS011;72059;53.734;10.260;2023-09-08T13:52:23;3.37;;;3.17;;
82417;SDS011;72059;53.734;10.260;2023-09-08T13:54:51;3.72;;;3.42;;
82417;SDS011;72059;53.734;10.260;2023-09-08T13:57:18;3.52;;;3.22;;
82417;SDS011;72059;53.734;10.260;2023-09-08T13:59:46;3.92;;;3.33;;
82417;SDS011;72059;53.734;10.260;2023-09-08T14:02:14;3.33;;;3.12;;
82417;SDS011;72059;53.734;10.260;2023-09-08T14:04:41;3.72;;;3.42;;
82417;SDS011;72059;53.734;10.260;2023-09-08T14:07:09;3.98;;;3.60;;
82417;SDS011;72059;53.734;10.260;2023-09-08T14:09:36;3.50;;;3.30;;
82417;SDS011;72059;53.734;10.260;2023-09-08T14:12:04;3.62;;;3.33;;
82417;SDS011;72059;53.734;10.260;2023-09-08T14:14:31;3.45;;;3.25;;
82417;SDS011;72059;53.734;10.260;2023-09-08T14:16:59;3.00;;;2.80;;
82417;SDS011;72059;53.734;10.260;2023-09-08T14:19:26;4.00;;;3.70;;
82417;SDS011;72059;53.734;10.260;2023-09-08T14:21:55;3.33;;;3.12;;
82417;SDS011;72059;53.734;10.260;2023-09-08T14:24:23;3.92;;;3.62;;
82417;SDS011;72059;53.734;10.260;2023-09-08T14:26:50;3.30;;;3.05;;
82417;SDS011;72059;53.734;10.260;2023-09-08T14:29:18;3.50;;;3.15;;
82417;SDS011;72059;53.734;10.260;2023-09-08T14:31:47;3.42;;;3.22;;
82417;SDS011;72059;53.734;10.260;2023-09-08T14:34:14;3.52;;;3.33;;
82417;SDS011;72059;53.734;10.260;2023-09-08T14:36:41;3.40;;;3.15;;
82417;SDS011;72059;53.734;10.260;2023-09-08T14:39:09;7.00;;;3.30;;
82417;SDS011;72059;53.734;10.260;2023-09-08T14:41:36;3.70;;;3.40;;
82417;SDS011;72059;53.734;10.260;2023-09-08T14:44:04;3.72;;;3.42;;
82417;SDS011;72059;53.734;10.260;2023-09-08T14:46:31;3.95;;;3.55;;
82417;SDS011;72059;53.734;10.260;2023-09-08T14:48:59;3.33;;;3.12;;
82417;SDS011;72059;53.734;10.260;2023-09-08T14:51:26;4.20;;;3.52;;